createdAt,value
2022-08-26T00:01:54.305Z,90.40
2022-08-26T00:04:25.196Z,90.50
2022-08-26T00:06:54.326Z,90.60
2022-08-26T00:09:22.838Z,90.70
2022-08-26T00:11:53.465Z,90.70
2022-08-26T00:14:21.583Z,90.70
2022-08-26T00:16:49.378Z,90.80
2022-08-26T00:19:19.222Z,90.70
2022-08-26T00:21:48.645Z,90.80
2022-08-26T00:24:19.333Z,90.80
2022-08-26T00:26:47.139Z,90.80
2022-08-26T00:29:14.944Z,91.00
2022-08-26T00:31:42.555Z,90.80
2022-08-26T00:34:13.920Z,90.80
2022-08-26T00:36:41.287Z,90.70
2022-08-26T00:39:09.450Z,90.70
2022-08-26T00:41:40.219Z,90.70
2022-08-26T00:44:11.234Z,90.70
2022-08-26T00:47:02.801Z,90.70
2022-08-26T00:49:42.521Z,90.70
2022-08-26T00:52:16.247Z,90.60
2022-08-26T00:54:51.547Z,90.60
2022-08-26T00:57:21.498Z,90.80
2022-08-26T00:59:54.738Z,90.50
2022-08-26T01:02:22.842Z,90.50
2022-08-26T01:04:55.743Z,90.70
2022-08-26T01:07:30.214Z,90.80
2022-08-26T01:10:00.951Z,90.80
2022-08-26T01:12:32.033Z,91.00
2022-08-26T01:15:00.714Z,91.10
2022-08-26T01:17:27.978Z,91.10
2022-08-26T01:20:11.672Z,91.20
2022-08-26T01:22:55.730Z,91.20
2022-08-26T01:25:25.324Z,91.20
2022-08-26T01:27:55.260Z,91.00
2022-08-26T01:30:27.998Z,90.90
2022-08-26T01:35:54.829Z,90.80
2022-08-26T01:38:23.725Z,91.00
2022-08-26T01:40:51.495Z,90.70
2022-08-26T01:43:25.171Z,90.70
2022-08-26T01:45:55.057Z,90.70
2022-08-26T01:48:26.129Z,90.90
2022-08-26T01:50:54.188Z,91.00
2022-08-26T01:53:24.039Z,91.00
2022-08-26T01:55:57.260Z,91.00
2022-08-26T01:58:36.489Z,90.90
2022-08-26T02:01:05.340Z,90.90
2022-08-26T02:03:33.922Z,90.90
2022-08-26T02:06:09.177Z,90.80
2022-08-26T02:08:41.849Z,90.80
2022-08-26T02:11:09.231Z,90.80
2022-08-26T02:13:43.815Z,90.70
2022-08-26T02:16:13.227Z,91.00
2022-08-26T02:18:43.694Z,90.70
2022-08-26T02:21:12.447Z,90.60
2022-08-26T02:23:40.521Z,90.60
2022-08-26T02:26:19.275Z,90.50
2022-08-26T02:28:58.430Z,90.50
2022-08-26T02:31:26.081Z,90.40
2022-08-26T02:33:53.509Z,90.40
2022-08-26T02:36:28.634Z,90.40
2022-08-26T02:38:56.336Z,90.30
2022-08-26T02:41:28.181Z,90.30
2022-08-26T02:43:55.989Z,90.30
2022-08-26T02:46:29.844Z,90.30
2022-08-26T02:48:58.380Z,90.30
2022-08-26T02:51:25.675Z,90.30
2022-08-26T02:53:53.473Z,90.50
2022-08-26T02:56:20.780Z,90.50
2022-08-26T02:58:48.112Z,90.50
2022-08-26T03:01:33.394Z,90.70
2022-08-26T03:04:03.815Z,90.80
2022-08-26T03:06:31.858Z,90.90
2022-08-26T03:09:00.029Z,90.90
2022-08-26T03:11:32.280Z,90.90
2022-08-26T03:14:03.366Z,90.90
2022-08-26T03:16:36.559Z,90.90
2022-08-26T03:19:06.721Z,90.90
2022-08-26T03:21:37.426Z,90.80
2022-08-26T03:24:05.626Z,90.70
2022-08-26T03:26:32.918Z,90.60
2022-08-26T03:29:19.113Z,90.90
2022-08-26T03:31:47.129Z,90.50
2022-08-26T03:34:15.136Z,90.50
2022-08-26T03:36:43.364Z,90.40
2022-08-26T03:39:12.167Z,90.40
2022-08-26T03:41:39.961Z,90.40
2022-08-26T03:44:11.536Z,90.40
2022-08-26T03:46:39.662Z,90.60
2022-08-26T03:49:07.886Z,90.70
2022-08-26T03:51:38.675Z,90.70
2022-08-26T03:54:08.298Z,90.50
2022-08-26T03:56:36.759Z,90.50
2022-08-26T03:59:05.152Z,90.40
2022-08-26T04:01:35.904Z,90.40
2022-08-26T04:04:04.504Z,90.30
2022-08-26T04:06:45.046Z,90.20
2022-08-26T04:09:17.706Z,90.10
2022-08-26T04:11:46.111Z,90.10
2022-08-26T04:14:21.219Z,90.00
2022-08-26T04:16:49.326Z,90.20
2022-08-26T04:19:18.564Z,90.30
2022-08-26T04:21:48.981Z,90.30
2022-08-26T04:24:17.619Z,90.50
2022-08-26T04:26:45.321Z,90.60
2022-08-26T04:29:20.143Z,90.70
2022-08-26T04:31:55.214Z,90.70
2022-08-26T04:34:24.538Z,90.70
2022-08-26T04:36:56.068Z,90.80
2022-08-26T04:39:23.790Z,90.80
2022-08-26T04:41:55.139Z,90.70
2022-08-26T04:44:24.361Z,90.70
2022-08-26T04:46:52.340Z,90.70
2022-08-26T04:49:21.059Z,90.60
2022-08-26T04:51:49.005Z,90.50
2022-08-26T04:54:16.568Z,90.40
2022-08-26T04:56:46.526Z,90.40
2022-08-26T04:59:18.163Z,90.30
2022-08-26T05:01:48.687Z,90.30
2022-08-26T05:04:18.984Z,90.20
2022-08-26T05:06:48.351Z,90.30
2022-08-26T05:09:16.281Z,90.20
2022-08-26T05:11:43.615Z,90.20
2022-08-26T05:14:10.885Z,90.20
2022-08-26T05:16:40.321Z,90.20
2022-08-26T05:19:08.641Z,90.20
2022-08-26T05:21:36.669Z,90.30
2022-08-26T05:24:04.752Z,90.20
2022-08-26T05:26:32.842Z,90.30
2022-08-26T05:29:01.509Z,90.30
2022-08-26T05:31:31.626Z,90.20
2022-08-26T05:34:00.488Z,90.20
2022-08-26T05:36:33.551Z,90.20
2022-08-26T05:39:04.653Z,90.20
2022-08-26T05:41:36.441Z,90.10
2022-08-26T05:44:07.412Z,90.10
2022-08-26T05:46:35.959Z,90.10
2022-08-26T05:49:04.761Z,90.10
2022-08-26T05:51:33.677Z,90.10
2022-08-26T05:54:06.901Z,90.10
2022-08-26T05:56:34.215Z,90.10
2022-08-26T05:59:02.718Z,90.10
2022-08-26T06:01:31.924Z,90.20
2022-08-26T06:04:03.542Z,90.20
2022-08-26T06:06:33.980Z,90.20
2022-08-26T06:09:04.738Z,90.20
2022-08-26T06:11:33.033Z,90.30
2022-08-26T06:14:06.370Z,90.40
2022-08-26T06:16:38.294Z,90.40
2022-08-26T06:19:10.599Z,90.40
2022-08-26T06:21:40.602Z,90.40
2022-08-26T06:24:31.614Z,90.40
2022-08-26T06:27:01.942Z,90.10
2022-08-26T06:29:33.136Z,90.30
2022-08-26T06:32:01.484Z,90.40
2022-08-26T06:34:30.256Z,90.40
2022-08-26T06:37:01.410Z,90.60
2022-08-26T06:39:30.768Z,90.70
2022-08-26T06:41:59.708Z,90.80
2022-08-26T06:44:27.515Z,90.90
2022-08-26T06:46:55.394Z,91.00
2022-08-26T06:49:27.198Z,91.00
2022-08-26T06:51:58.519Z,91.10
2022-08-26T06:54:31.719Z,91.20
2022-08-26T06:56:59.485Z,91.30
2022-08-26T06:59:27.271Z,91.30
2022-08-26T07:01:55.295Z,91.40
2022-08-26T07:04:24.529Z,91.50
2022-08-26T07:06:53.720Z,91.50
2022-08-26T07:09:23.588Z,91.60
2022-08-26T07:11:52.005Z,91.60
2022-08-26T07:14:21.391Z,91.60
2022-08-26T07:16:50.695Z,91.70
2022-08-26T07:19:30.641Z,91.60
2022-08-26T07:22:02.265Z,91.70
2022-08-26T07:24:32.952Z,91.70
2022-08-26T07:27:02.844Z,91.50
2022-08-26T07:29:30.916Z,91.40
2022-08-26T07:31:58.588Z,91.50
2022-08-26T07:34:27.774Z,91.60
2022-08-26T07:36:57.162Z,91.50
2022-08-26T07:39:26.861Z,91.60
2022-08-26T07:41:54.450Z,91.10
2022-08-26T07:44:22.195Z,91.60
2022-08-26T07:46:52.389Z,91.60
2022-08-26T07:49:25.333Z,91.60
2022-08-26T07:51:54.482Z,91.50
2022-08-26T07:54:26.776Z,91.80
2022-08-26T07:56:55.915Z,91.80
2022-08-26T07:59:23.733Z,92.30
2022-08-26T08:01:51.561Z,92.30
2022-08-26T08:04:26.130Z,92.40
2022-08-26T08:06:55.431Z,92.20
2022-08-26T08:09:23.183Z,92.00
2022-08-26T08:11:53.097Z,92.50
2022-08-26T08:14:22.280Z,92.10
2022-08-26T08:16:54.492Z,92.00
2022-08-26T08:19:36.575Z,91.60
2022-08-26T08:22:05.306Z,91.90
2022-08-26T08:24:45.268Z,91.90
2022-08-26T08:27:22.808Z,91.70
2022-08-26T08:29:54.375Z,91.60
2022-08-26T08:32:23.707Z,91.80
2022-08-26T08:34:51.608Z,91.70
2022-08-26T08:37:19.009Z,91.60
2022-08-26T08:39:46.323Z,91.60
2022-08-26T08:42:38.782Z,91.60
2022-08-26T08:45:20.214Z,91.70
2022-08-26T08:47:54.706Z,91.60
2022-08-26T08:50:42.881Z,91.70
2022-08-26T08:53:24.776Z,91.70
2022-08-26T08:56:21.267Z,91.70
2022-08-26T08:58:59.592Z,91.60
2022-08-26T09:01:43.497Z,91.60
2022-08-26T09:04:38.889Z,91.50
2022-08-26T09:07:11.992Z,91.50
2022-08-26T09:09:48.282Z,91.40
2022-08-26T09:12:29.867Z,91.40
2022-08-26T09:15:07.694Z,91.30
2022-08-26T09:17:40.889Z,91.20
2022-08-26T09:20:40.886Z,91.20
2022-08-26T09:23:10.852Z,91.20
2022-08-26T09:28:24.495Z,91.10
2022-08-26T09:31:12.201Z,91.10
2022-08-26T09:33:40.950Z,91.10
2022-08-26T09:36:37.805Z,91.10
2022-08-26T09:39:31.578Z,91.10
2022-08-26T09:42:04.888Z,91.10
2022-08-26T09:44:33.056Z,91.00
2022-08-26T09:47:04.879Z,91.00
2022-08-26T09:49:41.134Z,91.00
2022-08-26T09:52:14.768Z,91.00
2022-08-26T09:54:46.052Z,90.80
2022-08-26T09:57:21.032Z,90.80
2022-08-26T09:59:49.610Z,90.70
2022-08-26T10:02:17.019Z,91.20
2022-08-26T10:04:57.824Z,91.80
2022-08-26T10:07:51.243Z,92.10
2022-08-26T10:10:35.351Z,92.50
2022-08-26T10:13:23.478Z,92.70
2022-08-26T10:16:00.101Z,92.70
2022-08-26T10:18:38.702Z,92.80
2022-08-26T10:21:21.033Z,93.00
2022-08-26T10:23:53.404Z,93.00
2022-08-26T10:26:48.633Z,93.10
2022-08-26T10:29:21.197Z,93.20
2022-08-26T10:31:58.748Z,93.30
2022-08-26T10:34:30.185Z,93.40
2022-08-26T10:37:14.180Z,93.50
2022-08-26T10:39:57.217Z,93.60
2022-08-26T10:42:29.325Z,93.70
2022-08-26T10:45:02.562Z,93.80
2022-08-26T10:47:54.223Z,93.80
2022-08-26T10:50:25.988Z,93.80
2022-08-26T10:53:08.729Z,93.90
2022-08-26T10:55:50.503Z,93.90
2022-08-26T10:58:28.719Z,93.90
2022-08-26T11:01:42.242Z,93.90
2022-08-26T11:04:22.435Z,93.90
2022-08-26T11:07:10.518Z,93.90
2022-08-26T11:09:49.045Z,93.80
2022-08-26T11:12:51.589Z,93.90
2022-08-26T11:15:24.555Z,93.80
2022-08-26T11:17:52.208Z,93.80
2022-08-26T11:20:39.298Z,93.80
2022-08-26T11:23:12.929Z,93.80
2022-08-26T11:26:01.278Z,93.80
2022-08-26T11:28:44.148Z,93.80
2022-08-26T11:31:19.452Z,93.80
2022-08-26T11:33:57.046Z,93.80
2022-08-26T11:36:55.595Z,93.90
2022-08-26T11:39:31.064Z,93.90
2022-08-26T11:42:34.387Z,93.90
2022-08-26T11:45:19.577Z,93.90
2022-08-26T11:47:47.438Z,93.90
2022-08-26T11:50:20.173Z,93.90
2022-08-26T11:53:07.581Z,93.80
2022-08-26T11:55:41.834Z,93.40
2022-08-26T11:58:12.929Z,93.60
2022-08-26T12:00:46.240Z,93.60
2022-08-26T12:03:23.900Z,93.60
2022-08-26T12:05:53.757Z,93.60
2022-08-26T12:08:29.110Z,93.50
2022-08-26T12:11:10.209Z,93.30
2022-08-26T12:13:39.248Z,93.40
2022-08-26T12:16:07.520Z,92.60
2022-08-26T12:18:38.421Z,92.10
2022-08-26T12:21:22.761Z,92.40
2022-08-26T12:23:54.737Z,92.70
2022-08-26T12:26:28.170Z,92.80
2022-08-26T12:29:01.113Z,92.80
2022-08-26T12:31:37.577Z,92.60
2022-08-26T12:34:18.253Z,92.80
2022-08-26T12:36:54.733Z,92.90
2022-08-26T12:39:33.109Z,93.00
2022-08-26T12:42:21.850Z,93.00
2022-08-26T12:44:58.542Z,93.10
2022-08-26T12:47:43.986Z,93.10
2022-08-26T12:50:22.210Z,93.10
2022-08-26T12:53:03.110Z,92.50
2022-08-26T12:55:33.140Z,92.80
2022-08-26T12:58:15.798Z,92.80
2022-08-26T13:00:48.840Z,92.80
2022-08-26T13:03:34.669Z,92.80
2022-08-26T13:06:22.317Z,92.90
2022-08-26T13:08:52.609Z,93.00
2022-08-26T13:11:23.685Z,93.00
2022-08-26T13:13:55.865Z,93.00
2022-08-26T13:16:24.721Z,92.80
2022-08-26T13:18:56.027Z,92.60
2022-08-26T13:21:27.475Z,92.60
2022-08-26T13:23:55.607Z,92.60
2022-08-26T13:26:22.973Z,92.60
2022-08-26T13:29:01.853Z,92.70
2022-08-26T13:31:31.267Z,92.60
2022-08-26T13:33:59.013Z,91.60
2022-08-26T13:36:26.966Z,91.50
2022-08-26T13:38:54.278Z,91.70
2022-08-26T13:41:28.942Z,91.30
2022-08-26T13:43:58.243Z,91.60
2022-08-26T13:46:28.479Z,91.70
2022-08-26T13:48:57.938Z,91.70
2022-08-26T13:51:27.133Z,91.80
2022-08-26T13:53:55.123Z,91.70
2022-08-26T13:56:23.037Z,91.80
2022-08-26T13:58:50.546Z,91.80
2022-08-26T14:01:18.247Z,91.90
2022-08-26T14:03:46.332Z,91.90
2022-08-26T14:06:13.845Z,91.80
2022-08-26T14:08:42.035Z,91.60
2022-08-26T14:11:09.937Z,91.10
2022-08-26T14:13:37.231Z,91.60
2022-08-26T14:16:08.610Z,91.90
2022-08-26T14:18:41.799Z,92.00
2022-08-26T14:21:12.825Z,91.90
2022-08-26T14:23:41.434Z,91.90
2022-08-26T14:26:10.945Z,92.00
2022-08-26T14:28:44.712Z,92.10
2022-08-26T14:31:12.700Z,92.30
2022-08-26T14:33:41.442Z,92.20
2022-08-26T14:36:27.530Z,92.10
2022-08-26T14:38:56.597Z,92.00
2022-08-26T14:41:25.413Z,92.00
2022-08-26T14:44:00.262Z,92.10
2022-08-26T14:46:39.208Z,92.20
2022-08-26T14:49:10.372Z,92.00
2022-08-26T14:51:39.258Z,92.20
2022-08-26T14:54:13.540Z,92.30
2022-08-26T14:56:58.591Z,92.10
2022-08-26T14:59:38.385Z,92.50
2022-08-26T15:02:07.653Z,92.70
2022-08-26T15:04:35.166Z,92.60
2022-08-26T15:07:04.482Z,92.30
2022-08-26T15:09:36.409Z,92.60
2022-08-26T15:12:04.956Z,92.70
2022-08-26T15:14:33.165Z,92.80
2022-08-26T15:17:00.680Z,92.80
2022-08-26T15:19:28.248Z,92.90
2022-08-26T15:21:56.700Z,92.90
2022-08-26T15:24:26.081Z,93.00
2022-08-26T15:26:53.393Z,93.00
2022-08-26T15:29:22.301Z,93.00
2022-08-26T15:31:50.175Z,92.90
2022-08-26T15:34:17.948Z,93.00
2022-08-26T15:36:47.010Z,93.00
2022-08-26T15:39:16.008Z,92.90
2022-08-26T15:41:43.483Z,92.90
2022-08-26T15:44:11.784Z,92.90
2022-08-26T15:46:39.383Z,92.90
2022-08-26T15:49:07.502Z,92.90
2022-08-26T15:51:45.830Z,92.80
2022-08-26T15:54:16.038Z,92.80
2022-08-26T15:56:43.736Z,92.70
2022-08-26T15:59:11.821Z,92.70
2022-08-26T16:01:39.810Z,92.70
2022-08-26T16:04:07.536Z,92.60
2022-08-26T16:06:37.171Z,92.50
2022-08-26T16:09:05.691Z,92.60
2022-08-26T16:11:35.342Z,92.60
2022-08-26T16:14:02.950Z,92.60
2022-08-26T16:16:30.468Z,92.60
2022-08-26T16:18:57.903Z,92.60
2022-08-26T16:21:28.703Z,92.50
2022-08-26T16:23:57.289Z,92.20
2022-08-26T16:26:29.045Z,91.90
2022-08-26T16:28:56.430Z,91.40
2022-08-26T16:31:23.877Z,91.60
2022-08-26T16:33:51.482Z,91.70
2022-08-26T16:36:19.903Z,91.80
2022-08-26T16:38:50.257Z,91.80
2022-08-26T16:41:17.769Z,91.90
2022-08-26T16:43:45.753Z,91.90
2022-08-26T16:46:17.014Z,91.90
2022-08-26T16:48:45.271Z,92.00
2022-08-26T16:51:16.078Z,92.00
2022-08-26T16:53:44.006Z,92.00
2022-08-26T16:56:15.385Z,92.10
2022-08-26T16:58:44.103Z,91.60
2022-08-26T17:01:11.971Z,92.00
2022-08-26T17:03:39.615Z,91.60
2022-08-26T17:06:07.354Z,91.60
2022-08-26T17:08:36.514Z,91.60
2022-08-26T17:11:03.954Z,91.60
2022-08-26T17:13:35.516Z,91.60
2022-08-26T17:16:05.479Z,91.50
2022-08-26T17:18:33.687Z,91.40
2022-08-26T17:21:07.094Z,91.50
2022-08-26T17:23:35.402Z,91.60
2022-08-26T17:26:03.196Z,91.70
2022-08-26T17:28:30.759Z,91.70
2022-08-26T17:30:58.693Z,91.70
2022-08-26T17:33:26.668Z,91.70
2022-08-26T17:35:55.119Z,91.70
2022-08-26T17:38:23.336Z,91.60
2022-08-26T17:40:51.923Z,91.60
2022-08-26T17:43:19.776Z,91.60
2022-08-26T17:45:48.576Z,91.60
2022-08-26T17:48:17.391Z,91.50
2022-08-26T17:50:49.349Z,91.70
2022-08-26T17:53:19.173Z,92.00
2022-08-26T17:55:47.971Z,91.70
2022-08-26T17:58:17.227Z,91.80
2022-08-26T18:00:46.282Z,91.80
2022-08-26T18:03:13.876Z,91.70
2022-08-26T18:05:42.656Z,91.70
2022-08-26T18:08:10.253Z,91.60
2022-08-26T18:10:37.592Z,91.50
2022-08-26T18:13:04.905Z,91.40
2022-08-26T18:15:32.545Z,91.40
2022-08-26T18:18:00.141Z,91.50
2022-08-26T18:20:27.788Z,91.40
2022-08-26T18:22:55.397Z,91.80
2022-08-26T18:25:23.144Z,91.70
2022-08-26T18:27:50.786Z,91.60
2022-08-26T18:30:20.989Z,91.60
2022-08-26T18:32:50.879Z,91.60
2022-08-26T18:35:19.316Z,91.90
2022-08-26T18:37:46.764Z,92.30
2022-08-26T18:40:16.236Z,92.70
2022-08-26T18:42:44.051Z,93.40
2022-08-26T18:45:16.392Z,93.40
2022-08-26T18:47:44.144Z,93.60
2022-08-26T18:50:11.737Z,93.80
2022-08-26T18:52:39.264Z,93.90
2022-08-26T18:55:06.995Z,94.00
2022-08-26T18:57:34.309Z,94.00
2022-08-26T19:00:02.530Z,94.30
2022-08-26T19:02:30.666Z,94.10
2022-08-26T19:04:58.230Z,94.10
2022-08-26T19:07:25.798Z,94.20
2022-08-26T19:09:53.997Z,94.20
2022-08-26T19:12:22.125Z,94.20
2022-08-26T19:14:53.742Z,94.30
2022-08-26T19:17:22.650Z,94.20
2022-08-26T19:19:50.125Z,94.10
2022-08-26T19:22:19.857Z,93.90
2022-08-26T19:24:47.433Z,93.90
2022-08-26T19:27:15.155Z,93.70
2022-08-26T19:29:43.046Z,93.80
2022-08-26T19:32:10.352Z,93.80
2022-08-26T19:34:37.764Z,93.70
2022-08-26T19:37:05.193Z,93.70
2022-08-26T19:39:32.695Z,93.60
2022-08-26T19:42:00.832Z,93.60
2022-08-26T19:44:46.941Z,93.90
2022-08-26T19:47:15.210Z,93.80
2022-08-26T19:49:42.874Z,93.50
2022-08-26T19:52:11.521Z,93.50
2022-08-26T19:54:40.035Z,93.40
2022-08-26T19:57:07.458Z,93.40
2022-08-26T19:59:36.232Z,93.30
2022-08-26T20:02:10.898Z,93.30
2022-08-26T20:04:39.018Z,93.30
2022-08-26T20:07:06.496Z,92.70
2022-08-26T20:09:35.471Z,92.10
2022-08-26T20:12:05.558Z,92.40
2022-08-26T20:14:35.639Z,92.40
2022-08-26T20:17:08.862Z,92.40
2022-08-26T20:19:55.430Z,91.90
2022-08-26T20:22:23.477Z,92.20
2022-08-26T20:24:51.701Z,92.40
2022-08-26T20:27:19.376Z,92.50
2022-08-26T20:29:46.667Z,92.60
2022-08-26T20:32:16.912Z,92.50
2022-08-26T20:34:50.260Z,92.20
2022-08-26T20:37:21.618Z,92.30
2022-08-26T20:39:49.377Z,92.20
2022-08-26T20:42:20.282Z,90.00
2022-08-26T20:44:54.280Z,80.80
2022-08-26T20:47:22.663Z,83.70
2022-08-26T20:49:52.498Z,87.60
2022-08-26T20:52:20.451Z,86.20
2022-08-26T20:54:47.773Z,85.00
2022-08-26T20:57:15.064Z,84.10
2022-08-26T20:59:43.610Z,86.90
2022-08-26T21:02:10.918Z,86.20
2022-08-26T21:04:38.273Z,86.90
2022-08-26T21:07:05.734Z,87.50
2022-08-26T21:09:33.537Z,86.50
2022-08-26T21:12:00.794Z,88.10
2022-08-26T21:14:28.825Z,88.30
2022-08-26T21:16:57.423Z,87.30
2022-08-26T21:19:24.862Z,88.40
2022-08-26T21:21:52.480Z,88.20
2022-08-26T21:24:20.010Z,88.40
2022-08-26T21:26:47.903Z,88.00
2022-08-26T21:29:15.327Z,89.10
2022-08-26T21:31:46.608Z,89.60
2022-08-26T21:34:18.775Z,89.50
2022-08-26T21:36:47.044Z,89.30
2022-08-26T21:39:14.922Z,89.60
2022-08-26T21:41:43.700Z,89.50
2022-08-26T21:44:12.319Z,89.40
2022-08-26T21:46:40.307Z,88.30
2022-08-26T21:49:10.880Z,88.50
2022-08-26T21:51:42.121Z,89.60
2022-08-26T21:54:11.513Z,90.00
2022-08-26T21:56:44.235Z,90.00
2022-08-26T21:59:12.675Z,89.90
2022-08-26T22:01:40.593Z,88.90
2022-08-26T22:04:09.263Z,89.00
2022-08-26T22:06:43.351Z,89.60
2022-08-26T22:09:11.993Z,89.30
2022-08-26T22:11:39.452Z,90.10
2022-08-26T22:14:06.878Z,90.20
2022-08-26T22:16:34.285Z,90.20
2022-08-26T22:19:02.077Z,90.00
2022-08-26T22:21:29.476Z,88.70
2022-08-26T22:23:58.655Z,87.70
2022-08-26T22:26:28.881Z,89.10
2022-08-26T22:28:59.207Z,90.10
2022-08-26T22:31:38.133Z,90.40
2022-08-26T22:34:12.162Z,90.20
2022-08-26T22:36:43.219Z,90.10
2022-08-26T22:39:17.491Z,90.00
2022-08-26T22:41:46.228Z,90.00
2022-08-26T22:44:13.715Z,89.90
2022-08-26T22:46:42.562Z,89.60
2022-08-26T22:49:12.524Z,88.90
2022-08-26T22:51:39.918Z,89.10
2022-08-26T22:54:07.457Z,89.20
2022-08-26T22:56:38.270Z,88.90
2022-08-26T22:59:08.098Z,89.30
2022-08-26T23:01:38.548Z,88.90
2022-08-26T23:04:07.565Z,88.80
2022-08-26T23:06:37.502Z,88.60
2022-08-26T23:09:06.232Z,87.70
2022-08-26T23:11:34.009Z,87.70
2022-08-26T23:14:02.899Z,86.80
2022-08-26T23:16:37.968Z,87.10
2022-08-26T23:19:08.217Z,86.70
2022-08-26T23:21:35.858Z,86.00
2022-08-26T23:24:03.661Z,86.10
2022-08-26T23:26:31.878Z,86.60
2022-08-26T23:28:59.586Z,85.20
2022-08-26T23:31:26.941Z,85.50
2022-08-26T23:34:12.742Z,85.90
2022-08-26T23:36:42.408Z,85.50
2022-08-26T23:39:11.705Z,86.80
2022-08-26T23:41:39.114Z,87.00
2022-08-26T23:44:06.450Z,87.20
2022-08-26T23:46:35.695Z,86.90
2022-08-26T23:49:04.187Z,87.00
2022-08-26T23:51:50.087Z,86.60
2022-08-26T23:54:17.453Z,86.90
2022-08-26T23:56:46.095Z,86.90
2022-08-26T23:59:13.717Z,86.50
